Time;durP1;ratioP1;P1;durP2;ratioP2;P2;SDS_P1;SDS_P2;PMS_P1;PMS_P2;Temp;Humidity;BMP_temperature;BMP_pressure;BME280_temperature;BME280_humidity;BME280_pressure;Samples;Min_cycle;Max_cycle;Signal;HPM_P1;HPM_P2
2022/01/17 00:00:37;;;;;;;11.23;8.83;;;;;;;4.46;61.20;100223.25;5056018;28;20234;-81
2022/01/17 00:03:04;;;;;;;9.93;8.37;;;;;;;4.42;61.76;100228.06;5089565;28;20243;-80
2022/01/17 00:05:31;;;;;;;9.20;8.03;;;;;;;4.47;61.60;100214.31;5057802;28;20538;-81
2022/01/17 00:07:57;;;;;;;9.63;8.17;;;;;;;4.41;61.82;100207.00;5177972;22;20228;-81
2022/01/17 00:10:24;;;;;;;10.90;8.33;;;;;;;4.34;61.64;100176.81;5093264;28;20250;-80
2022/01/17 00:12:57;;;;;;;12.40;8.80;;;;;;;4.49;61.04;100180.47;5091922;28;20223;-81
2022/01/17 00:15:41;;;;;;;10.30;8.53;;;;;;;4.39;61.75;100187.75;5092861;28;20227;-81
2022/01/17 00:20:46;;;;;;;11.30;7.83;;;;;;;4.42;61.43;100155.59;5085858;28;20216;-81
2022/01/17 00:23:15;;;;;;;10.27;8.20;;;;;;;4.34;61.68;100143.16;5098140;22;20233;-81
2022/01/17 00:25:43;;;;;;;11.00;8.70;;;;;;;4.31;62.09;100163.88;5091139;23;20224;-81
2022/01/17 00:28:10;;;;;;;9.77;7.83;;;;;;;4.31;62.42;100148.81;5093319;22;20243;-81
2022/01/17 00:30:37;;;;;;;10.47;8.00;;;;;;;4.36;62.08;100135.88;5054486;28;20213;-80
2022/01/17 00:33:04;;;;;;;11.33;8.80;;;;;;;4.38;62.36;100143.66;5074320;28;20209;-81
2022/01/17 00:35:31;;;;;;;11.67;8.07;;;;;;;4.33;62.44;100133.56;5095544;22;20235;-81
2022/01/17 00:37:59;;;;;;;11.07;8.40;;;;;;;4.37;62.52;100134.88;5164814;22;20244;-81
2022/01/17 00:40:26;;;;;;;11.33;8.03;;;;;;;4.32;62.47;100136.38;5063800;28;20207;-81
2022/01/17 00:42:53;;;;;;;10.57;8.47;;;;;;;4.31;62.22;100137.34;5070476;28;20182;-80
2022/01/17 00:45:27;;;;;;;10.97;8.60;;;;;;;4.38;62.54;100143.66;5070604;28;22285;-81
2022/01/17 00:48:00;;;;;;;8.67;7.47;;;;;;;4.39;62.68;100163.88;5079726;22;20193;-80
2022/01/17 00:50:52;;;;;;;9.73;7.93;;;;;;;4.49;62.41;100190.22;5075868;28;20255;-81
2022/01/17 00:53:37;;;;;;;11.37;7.30;;;;;;;4.60;61.63;100190.75;5108701;22;20227;-81
2022/01/17 00:56:06;;;;;;;10.70;8.57;;;;;;;4.50;62.41;100205.16;5089962;28;20247;-80
2022/01/17 00:58:37;;;;;;;9.83;7.57;;;;;;;4.66;62.16;100205.16;5091553;28;20327;-80
2022/01/17 01:01:03;;;;;;;9.40;7.30;;;;;;;4.68;62.00;100216.44;5090529;28;20185;-80
2022/01/17 01:03:40;;;;;;;9.93;7.73;;;;;;;4.68;61.96;100195.19;5091988;28;20232;-81
2022/01/17 01:06:08;;;;;;;9.83;7.57;;;;;;;4.67;62.39;100199.69;5095482;22;20296;-81
2022/01/17 01:08:34;;;;;;;10.00;7.50;;;;;;;4.59;62.60;100189.06;5056089;23;20238;-81
2022/01/17 01:11:08;;;;;;;8.53;6.97;;;;;;;4.72;61.56;100204.47;5056043;28;20217;-81
2022/01/17 01:13:39;;;;;;;8.87;6.57;;;;;;;4.83;61.09;100238.66;5092075;28;20208;-81
2022/01/17 01:16:23;;;;;;;9.23;6.90;;;;;;;4.86;61.24;100215.25;5118225;22;21317;-81
2022/01/17 01:19:42;;;;;;;7.30;6.03;;;;;;;4.84;60.74;100219.09;5183283;22;20676;-80
2022/01/17 01:29:47;;;;;;;7.30;6.40;;;;;;;4.96;60.19;100219.53;5073448;23;20260;-80
2022/01/17 01:32:23;;;;;;;7.90;6.47;;;;;;;4.95;60.07;100193.97;5074057;28;20240;-81
2022/01/17 01:34:53;;;;;;;7.90;6.63;;;;;;;4.99;60.16;100212.09;5086286;23;20224;-80
2022/01/17 01:37:23;;;;;;;8.50;7.03;;;;;;;4.93;60.55;100185.38;5070749;23;20295;-80
2022/01/17 01:40:07;;;;;;;8.10;6.67;;;;;;;4.92;60.90;100204.94;5114083;22;20221;-81
2022/01/17 01:42:41;;;;;;;8.90;6.43;;;;;;;4.93;60.44;100167.63;5089503;28;20286;-81
2022/01/17 01:45:20;;;;;;;7.43;6.30;;;;;;;4.97;60.32;100182.22;5073308;28;20205;-80
2022/01/17 01:47:48;;;;;;;9.37;6.60;;;;;;;5.07;60.13;100179.34;5077201;23;20232;-81
2022/01/17 01:50:30;;;;;;;7.60;6.43;;;;;;;4.84;60.09;100158.84;5090228;23;20235;-81
2022/01/17 01:53:01;;;;;;;7.97;6.37;;;;;;;5.05;60.22;100168.06;5089301;28;20211;-80
2022/01/17 01:55:29;;;;;;;8.70;6.37;;;;;;;5.11;59.86;100164.72;5096390;22;20301;-80
2022/01/17 01:58:03;;;;;;;8.33;6.83;;;;;;;4.98;60.07;100149.34;5055999;28;20223;-81
2022/01/17 02:00:30;;;;;;;8.47;6.87;;;;;;;5.02;60.42;100165.75;5072725;28;20228;-80
2022/01/17 02:02:58;;;;;;;9.10;6.77;;;;;;;5.03;59.75;100170.91;5080135;22;20216;-81
2022/01/17 02:05:25;;;;;;;7.43;6.10;;;;;;;4.94;60.36;100152.50;5057006;23;20260;-80
2022/01/17 02:07:52;;;;;;;9.40;6.47;;;;;;;4.96;60.05;100151.34;5251427;23;20270;-80
2022/01/17 02:10:19;;;;;;;7.03;6.03;;;;;;;4.92;60.19;100142.06;5155808;23;20221;-81
2022/01/17 02:12:51;;;;;;;7.70;6.27;;;;;;;4.86;60.52;100167.44;5071083;22;20297;-81
2022/01/17 02:15:34;;;;;;;6.70;5.77;;;;;;;4.94;60.35;100142.72;5056015;28;20284;-81
2022/01/17 02:18:00;;;;;;;6.80;5.87;;;;;;;4.92;59.98;100128.78;5089688;28;20938;-80
2022/01/17 02:20:58;;;;;;;6.80;5.90;;;;;;;4.94;60.79;100156.00;5095172;22;20299;-81
2022/01/17 02:23:28;;;;;;;7.43;5.77;;;;;;;4.87;60.75;100169.13;5075943;22;20300;-80
2022/01/17 02:25:55;;;;;;;7.30;6.13;;;;;;;4.77;60.80;100152.53;5069479;28;20177;-81
2022/01/17 02:28:27;;;;;;;7.20;6.30;;;;;;;4.76;61.62;100163.31;5060767;23;20237;-80
2022/01/17 02:30:55;;;;;;;6.77;6.03;;;;;;;4.69;62.02;100155.22;5034208;28;20202;-81
2022/01/17 02:33:22;;;;;;;7.40;5.97;;;;;;;4.73;61.61;100156.53;5031304;28;20235;-80
2022/01/17 02:35:53;;;;;;;6.67;5.87;;;;;;;4.72;62.29;100140.78;5050207;28;20589;-80
2022/01/17 02:38:23;;;;;;;7.40;6.60;;;;;;;4.70;62.12;100158.72;5029058;28;20645;-80
2022/01/17 02:40:51;;;;;;;7.37;6.23;;;;;;;4.63;62.71;100158.53;5077497;23;20247;-80
2022/01/17 02:43:21;;;;;;;6.93;6.13;;;;;;;4.63;62.85;100168.31;5064112;23;20247;-81
2022/01/17 02:49:24;;;;;;;8.00;6.30;;;;;;;4.60;63.02;100168.69;5091786;23;20225;-81
2022/01/17 02:52:27;;;;;;;8.20;7.10;;;;;;;4.52;63.45;100166.03;5094224;28;20247;-81
2022/01/17 02:54:59;;;;;;;6.43;5.70;;;;;;;4.39;63.56;100159.41;5086286;22;20212;-80
2022/01/17 02:57:49;;;;;;;7.47;6.53;;;;;;;4.37;64.22;100181.81;5089016;23;20241;-80
2022/01/17 03:00:34;;;;;;;7.40;6.07;;;;;;;4.40;63.78;100174.31;5098327;28;20189;-81
2022/01/17 03:03:24;;;;;;;6.63;5.93;;;;;;;4.31;64.49;100164.72;5097835;28;20256;-80
2022/01/17 03:06:09;;;;;;;7.43;6.40;;;;;;;4.28;64.40;100151.81;5109919;22;20210;-81
2022/01/17 03:10:01;;;;;;;6.50;5.80;;;;;;;4.25;64.15;100141.50;5066061;22;20237;-81
2022/01/17 03:12:55;;;;;;;6.83;5.73;;;;;;;4.15;64.89;100146.16;5082335;23;20225;-80
2022/01/17 03:15:47;;;;;;;6.60;5.50;;;;;;;4.04;64.78;100135.88;5061096;23;20261;-80
2022/01/17 03:18:18;;;;;;;6.90;5.93;;;;;;;4.05;64.91;100112.84;5126596;22;20228;-81
2022/01/17 03:21:08;;;;;;;6.87;5.87;;;;;;;4.18;64.87;100116.66;5096206;23;20250;-80
2022/01/17 03:24:09;;;;;;;6.87;5.87;;;;;;;4.30;64.66;100128.56;5138405;28;20219;-81
2022/01/17 03:27:11;;;;;;;7.43;6.30;;;;;;;4.32;65.05;100121.28;5140365;22;20229;-81
2022/01/17 03:29:54;;;;;;;7.73;6.20;;;;;;;4.28;65.44;100133.22;5107447;23;20224;-81
2022/01/17 03:32:27;;;;;;;7.47;6.20;;;;;;;4.23;65.02;100122.28;5137958;22;20237;-81
2022/01/17 03:36:04;;;;;;;7.63;6.60;;;;;;;4.04;66.18;100117.31;5137039;22;20258;-81
2022/01/17 03:39:10;;;;;;;8.13;6.47;;;;;;;4.10;66.21;100111.38;5122654;22;20220;-80
2022/01/17 03:42:01;;;;;;;7.53;6.20;;;;;;;3.98;66.53;100124.09;5110428;22;20168;-81
2022/01/17 03:44:46;;;;;;;6.90;5.90;;;;;;;4.09;66.65;100120.31;5116109;22;20216;-81
2022/01/17 03:47:17;;;;;;;7.83;6.13;;;;;;;4.07;66.41;100132.06;5063946;23;20221;-81
2022/01/17 03:49:43;;;;;;;6.70;6.00;;;;;;;4.05;66.15;100105.72;5056643;28;20235;-80
2022/01/17 03:52:11;;;;;;;6.10;5.07;;;;;;;4.02;66.85;100116.66;5073185;28;20666;-81
2022/01/17 03:54:49;;;;;;;6.40;5.20;;;;;;;3.98;66.74;100110.03;5089063;28;20215;-80
2022/01/17 03:57:16;;;;;;;6.67;5.87;;;;;;;3.90;67.30;100104.72;5084164;28;20576;-81
2022/01/17 03:59:44;;;;;;;5.87;5.20;;;;;;;3.75;67.59;100090.47;5090142;22;20248;-81
2022/01/17 04:02:10;;;;;;;6.53;5.40;;;;;;;3.78;67.07;100087.50;5065098;22;20241;-81
2022/01/17 04:04:40;;;;;;;6.40;5.10;;;;;;;3.97;66.60;100092.44;5076337;23;20200;-81
2022/01/17 04:07:07;;;;;;;5.87;5.00;;;;;;;3.96;66.18;100090.81;5057064;28;20205;-81
2022/01/17 04:09:34;;;;;;;5.87;4.80;;;;;;;3.81;66.57;100089.81;5075838;23;20224;-81
2022/01/17 04:12:03;;;;;;;6.70;4.90;;;;;;;4.08;65.89;100080.69;5078335;23;20217;-80
2022/01/17 04:14:54;;;;;;;5.07;4.20;;;;;;;3.92;65.68;100078.84;5078125;28;20232;-81
2022/01/17 04:17:28;;;;;;;5.10;4.40;;;;;;;3.98;65.84;100086.16;5091768;28;20237;-81
2022/01/17 04:20:06;;;;;;;5.00;4.40;;;;;;;4.10;65.35;100086.66;5108031;22;20219;-80
2022/01/17 04:22:51;;;;;;;4.90;3.93;;;;;;;4.07;65.13;100058.63;5077872;28;20254;-81
2022/01/17 04:25:19;;;;;;;4.43;3.97;;;;;;;4.20;64.65;100058.16;5074233;28;20224;-81
2022/01/17 04:27:48;;;;;;;5.40;4.13;;;;;;;4.29;64.47;100057.13;5187904;22;20221;-81
2022/01/17 04:30:16;;;;;;;4.10;3.70;;;;;;;4.25;64.62;100048.66;5038181;28;20232;-81
2022/01/17 04:32:45;;;;;;;5.30;4.50;;;;;;;4.33;64.32;100061.94;5112959;22;20310;-81
2022/01/17 04:35:14;;;;;;;5.40;4.20;;;;;;;4.44;64.39;100028.88;5110556;28;20246;-80
2022/01/17 04:37:43;;;;;;;5.43;4.30;;;;;;;4.42;63.89;100042.34;5084960;22;20229;-81
2022/01/17 04:40:17;;;;;;;4.60;4.13;;;;;;;4.47;63.44;100048.97;5052024;23;20227;-80
2022/01/17 04:42:47;;;;;;;4.17;3.70;;;;;;;4.55;63.38;100049.75;5119599;22;21088;-80
2022/01/17 04:45:20;;;;;;;4.67;3.90;;;;;;;4.60;62.90;100052.72;5108088;28;20200;-80
2022/01/17 04:47:51;;;;;;;4.27;3.87;;;;;;;4.65;62.85;100047.75;5056282;23;20225;-81
2022/01/17 04:50:23;;;;;;;5.10;4.27;;;;;;;4.63;62.60;100051.56;5056184;28;20273;-81
2022/01/17 04:52:50;;;;;;;4.83;4.33;;;;;;;4.67;63.16;100047.56;5091077;28;20217;-80
2022/01/17 04:55:19;;;;;;;4.90;4.13;;;;;;;4.77;62.62;100064.09;5088557;23;20229;-81
2022/01/17 04:57:50;;;;;;;5.07;4.37;;;;;;;4.85;61.87;100066.75;5097089;22;20606;-81
2022/01/17 05:00:20;;;;;;;5.17;4.37;;;;;;;4.87;61.90;100067.41;5110450;28;20192;-81
2022/01/17 05:02:47;;;;;;;4.70;4.23;;;;;;;4.86;61.65;100044.50;5110916;28;20228;-81
2022/01/17 05:05:14;;;;;;;5.30;4.30;;;;;;;4.93;61.86;100047.28;5108945;22;20262;-81
2022/01/17 05:07:52;;;;;;;4.73;4.07;;;;;;;5.03;61.86;100037.28;5091178;28;20235;-80
2022/01/17 05:10:21;;;;;;;5.63;3.93;;;;;;;5.01;61.94;100036.63;5094597;23;20224;-81
2022/01/17 05:12:52;;;;;;;5.20;4.20;;;;;;;4.78;62.34;100023.28;5028355;23;1353764;-81
2022/01/17 05:15:31;;;;;;;4.80;4.30;;;;;;;4.82;62.04;100041.38;5079254;23;20236;-80
2022/01/17 05:19:47;;;;;;;4.20;3.57;;;;;;;4.86;61.10;100017.94;5089848;28;20239;-81
2022/01/17 05:21:15;;;;;;;4.83;4.33;;;;;;;5.00;61.42;100041.09;5090147;28;20262;-81
2022/01/17 05:23:46;;;;;;;4.47;4.07;;;;;;;5.02;61.14;100025.84;5104459;22;20272;-81
2022/01/17 05:26:15;;;;;;;4.67;4.03;;;;;;;4.92;61.46;100014.59;5111098;28;20234;-81
2022/01/17 05:28:48;;;;;;;5.20;4.23;;;;;;;5.16;61.03;100022.44;5098445;28;20227;-81
2022/01/17 05:31:18;;;;;;;5.40;4.30;;;;;;;5.12;61.23;100030.94;5097007;23;20227;-81
2022/01/17 05:33:48;;;;;;;4.53;3.80;;;;;;;5.11;60.87;100000.06;5097873;22;20187;31
2022/01/17 05:36:15;;;;;;;5.10;4.23;;;;;;;5.19;59.65;100016.75;5034371;28;20272;-81
2022/01/17 05:38:42;;;;;;;5.23;4.17;;;;;;;5.21;59.91;100025.41;5035409;28;20288;-81
2022/01/17 05:41:12;;;;;;;4.73;4.13;;;;;;;5.16;59.93;100029.56;5052891;28;20236;-81
2022/01/17 05:43:40;;;;;;;7.80;5.10;;;;;;;5.32;60.01;100048.06;5067910;28;20218;-81
2022/01/17 05:46:27;;;;;;;5.77;4.53;;;;;;;5.25;60.71;100047.94;5051051;28;20243;-81
2022/01/17 05:48:56;;;;;;;6.33;5.70;;;;;;;5.29;60.50;100049.25;5068504;28;20253;-81
2022/01/17 05:51:23;;;;;;;6.10;5.20;;;;;;;5.32;61.13;100075.47;5052457;28;20185;-80
2022/01/17 05:53:52;;;;;;;7.07;5.43;;;;;;;5.35;60.77;100063.66;5051567;28;20252;-81
2022/01/17 05:56:23;;;;;;;7.03;5.77;;;;;;;5.37;60.52;100059.00;5086594;22;20239;-81
2022/01/17 05:58:54;;;;;;;8.03;6.10;;;;;;;5.42;60.39;100055.81;5092855;28;20267;-81
2022/01/17 06:01:24;;;;;;;5.50;4.90;;;;;;;5.45;60.30;100061.63;5104452;22;20239;-81
2022/01/17 06:03:56;;;;;;;6.73;6.03;;;;;;;5.51;59.80;100050.25;5060921;23;20201;-82
2022/01/17 06:06:27;;;;;;;6.17;5.57;;;;;;;5.43;59.98;100044.19;5087065;28;20217;-80
2022/01/17 06:09:01;;;;;;;6.33;5.50;;;;;;;5.28;59.75;100038.78;5086283;23;20233;-81
2022/01/17 06:11:35;;;;;;;6.23;5.13;;;;;;;5.49;59.58;100057.59;5060381;22;20270;-81
2022/01/17 06:14:04;;;;;;;6.53;5.47;;;;;;;5.50;59.84;100047.81;4988827;28;20227;-80
2022/01/17 06:16:31;;;;;;;5.73;5.13;;;;;;;5.48;58.97;100053.28;5005148;28;20245;-81
2022/01/17 06:19:00;;;;;;;6.13;4.77;;;;;;;5.42;58.96;100022.09;5031913;23;20249;-80
2022/01/17 06:21:28;;;;;;;6.50;5.13;;;;;;;5.42;59.39;100002.66;5022484;28;20221;-81
2022/01/17 06:24:19;;;;;;;5.80;5.20;;;;;;;5.62;59.20;100019.78;5012407;28;20242;-81
2022/01/17 06:26:46;;;;;;;6.00;5.03;;;;;;;5.53;59.03;100011.06;5057179;23;20249;-81
2022/01/17 06:29:19;;;;;;;6.23;5.40;;;;;;;5.49;59.04;100014.25;5041474;28;20229;-81
2022/01/17 06:31:47;;;;;;;6.27;5.40;;;;;;;5.48;58.68;99992.16;5074508;28;20205;-82
2022/01/17 06:34:21;;;;;;;6.63;5.03;;;;;;;5.66;58.45;99992.69;5075127;28;20224;-80
2022/01/17 06:37:03;;;;;;;5.77;4.90;;;;;;;5.73;58.44;99939.63;5054659;28;20252;-81
2022/01/17 06:39:35;;;;;;;6.17;5.27;;;;;;;5.54;58.80;99974.69;5082867;23;20263;-81
2022/01/17 06:42:42;;;;;;;7.97;5.50;;;;;;;5.63;58.54;100005.50;5050563;28;20204;-81
2022/01/17 06:45:11;;;;;;;6.93;5.60;;;;;;;5.79;58.44;100015.97;5072051;23;20227;-81
2022/01/17 06:47:49;;;;;;;6.80;5.80;;;;;;;5.64;58.60;100020.47;5088959;22;20232;-80
2022/01/17 06:50:33;;;;;;;6.80;6.10;;;;;;;5.61;58.81;100018.13;5051139;28;20256;-81
2022/01/17 06:53:03;;;;;;;6.50;5.47;;;;;;;5.56;59.63;100016.00;5034799;28;20291;-81
2022/01/17 06:55:50;;;;;;;7.27;5.80;;;;;;;5.64;58.81;100015.13;5073392;28;20277;-81
2022/01/17 06:58:20;;;;;;;6.67;5.63;;;;;;;5.66;59.01;100027.22;5056771;28;20252;-80
2022/01/17 07:00:48;;;;;;;6.70;5.53;;;;;;;5.71;58.92;100021.38;5075136;22;20660;-81
2022/01/17 07:03:31;;;;;;;7.20;5.73;;;;;;;5.67;58.74;100006.78;5060210;23;20228;-81
2022/01/17 07:06:01;;;;;;;6.40;5.37;;;;;;;5.68;58.77;100006.63;5043818;28;20221;-81
2022/01/17 07:08:29;;;;;;;7.03;5.90;;;;;;;5.82;58.43;100010.31;5067133;28;20188;-81
2022/01/17 07:11:03;;;;;;;8.27;5.97;;;;;;;5.78;57.81;99971.00;5069000;28;20228;-81
2022/01/17 07:13:31;;;;;;;7.57;5.47;;;;;;;5.88;57.51;99987.53;5089348;28;20222;-81
2022/01/17 07:16:05;;;;;;;7.27;5.97;;;;;;;5.96;57.93;99985.63;5059928;28;20224;-81
2022/01/17 07:18:53;;;;;;;7.63;5.40;;;;;;;5.94;57.96;99971.69;5093574;28;20239;-81
2022/01/17 07:21:19;;;;;;;5.67;4.73;;;;;;;5.84;57.95;99981.72;5093416;28;20193;-81
2022/01/17 07:23:51;;;;;;;6.47;5.33;;;;;;;5.92;57.54;99947.13;5073059;23;20243;-81
2022/01/17 07:26:22;;;;;;;6.90;5.43;;;;;;;6.01;58.25;99969.97;5189740;22;20232;-81
2022/01/17 07:29:19;;;;;;;6.87;5.43;;;;;;;6.10;57.91;99987.47;5117226;28;20242;-81
2022/01/17 07:32:02;;;;;;;6.23;5.07;;;;;;;6.03;58.30;99999.00;5115986;22;20234;-81
2022/01/17 07:34:33;;;;;;;7.23;4.90;;;;;;;6.06;58.58;100039.41;5089506;28;20231;-81
2022/01/17 07:37:00;;;;;;;7.83;5.20;;;;;;;6.05;58.46;100031.59;5093652;28;20204;-81
2022/01/17 07:39:29;;;;;;;7.93;5.53;;;;;;;6.05;58.67;100088.28;5093899;23;20269;-81
2022/01/17 07:42:03;;;;;;;6.10;5.20;;;;;;;6.05;58.77;100064.34;5108220;28;20207;-81
2022/01/17 07:44:33;;;;;;;6.77;5.00;;;;;;;6.12;58.83;100045.81;5124330;22;20245;-81
2022/01/17 07:47:02;;;;;;;7.10;4.93;;;;;;;6.12;59.44;100054.63;5086667;22;20221;-81
2022/01/17 07:49:33;;;;;;;6.27;5.00;;;;;;;6.09;58.86;100033.72;5071108;28;20193;-81
2022/01/17 07:52:06;;;;;;;6.77;5.20;;;;;;;6.12;59.10;100000.59;5087886;22;20245;-81
2022/01/17 07:54:43;;;;;;;6.43;4.70;;;;;;;6.15;59.25;99984.28;5114024;28;20250;-80
2022/01/17 07:57:29;;;;;;;5.20;4.70;;;;;;;6.11;59.45;99978.47;5115019;28;20215;-80
2022/01/17 08:00:22;;;;;;;5.23;4.53;;;;;;;6.24;58.97;99942.44;5117127;28;20214;-81
2022/01/17 08:02:58;;;;;;;5.73;4.57;;;;;;;6.22;59.08;99968.38;5122148;22;20220;-80
2022/01/17 08:06:05;;;;;;;5.63;4.43;;;;;;;6.15;59.15;99955.84;5101679;22;20240;31
2022/01/17 08:08:32;;;;;;;5.50;4.23;;;;;;;6.15;58.75;99925.75;5051802;28;20190;-81
2022/01/17 08:11:03;;;;;;;5.53;4.50;;;;;;;6.20;59.44;99960.63;5071600;22;20162;-81
2022/01/17 08:13:35;;;;;;;5.43;4.40;;;;;;;6.29;58.72;99964.84;5182267;22;20241;-81
2022/01/17 08:16:14;;;;;;;4.57;3.90;;;;;;;6.27;58.39;99947.38;5078113;28;20216;-80
2022/01/17 08:19:01;;;;;;;4.50;3.83;;;;;;;6.40;58.52;99948.38;5207177;22;20223;-81
2022/01/17 08:22:45;;;;;;;4.93;3.93;;;;;;;6.48;58.49;99903.06;5092879;28;20243;-81
2022/01/17 08:25:49;;;;;;;4.30;3.47;;;;;;;6.50;58.25;99878.88;5126446;22;20209;-81
2022/01/17 08:28:41;;;;;;;4.23;2.80;;;;;;;6.53;57.47;99875.88;5102011;28;20207;-81
2022/01/17 08:31:26;;;;;;;3.20;2.73;;;;;;;6.68;57.89;99875.81;5061448;23;20234;-80
2022/01/17 08:34:10;;;;;;;3.47;2.77;;;;;;;6.73;57.51;99889.38;5016219;23;20226;-80
2022/01/17 08:36:41;;;;;;;2.47;2.17;;;;;;;6.70;57.83;99885.28;5096855;28;20193;-80
2022/01/17 08:39:31;;;;;;;2.80;2.47;;;;;;;6.79;57.77;99886.81;5113967;28;20207;-81
2022/01/17 08:42:19;;;;;;;3.60;2.10;;;;;;;6.87;57.37;99907.16;5099236;22;20228;-81
2022/01/17 08:45:06;;;;;;;2.07;1.87;;;;;;;7.01;57.34;99925.75;5085739;23;20227;-80
2022/01/17 08:48:00;;;;;;;2.77;2.07;;;;;;;7.06;57.13;99907.38;5081115;22;20229;-81
2022/01/17 08:50:47;;;;;;;2.00;1.90;;;;;;;7.09;56.88;99922.16;5080992;23;20217;-81
2022/01/17 08:53:26;;;;;;;2.03;1.77;;;;;;;7.14;56.38;99905.59;5094943;23;20220;-81
2022/01/17 08:56:01;;;;;;;2.70;1.80;;;;;;;7.01;56.82;99864.47;5122355;22;20220;-81
2022/01/17 08:59:19;;;;;;;2.30;1.70;;;;;;;7.20;56.80;99902.16;5091505;22;20460;-81
2022/01/17 09:01:48;;;;;;;2.10;1.43;;;;;;;7.18;56.04;99894.38;5081934;22;20225;-81
2022/01/17 09:04:44;;;;;;;2.93;1.80;;;;;;;7.33;55.48;99919.09;5087284;22;20240;-81
2022/01/17 09:07:15;;;;;;;2.90;1.60;;;;;;;7.35;55.80;99924.22;5084413;22;20240;-81
2022/01/17 09:09:48;;;;;;;1.30;1.20;;;;;;;7.34;55.41;99902.09;5108547;22;20232;-80
2022/01/17 09:12:17;;;;;;;2.33;1.60;;;;;;;7.32;55.53;99845.50;5117864;22;20317;-81
2022/01/17 09:14:46;;;;;;;2.90;1.30;;;;;;;7.54;54.80;99883.59;5087617;22;20252;-81
2022/01/17 09:17:17;;;;;;;1.30;1.20;;;;;;;7.51;55.57;99865.31;5040905;23;20246;-81
2022/01/17 09:19:50;;;;;;;3.60;1.33;;;;;;;7.51;55.10;99852.78;5119618;22;20223;-81
2022/01/17 09:22:19;;;;;;;2.10;1.30;;;;;;;7.56;55.06;99846.88;5092525;23;20237;-80
2022/01/17 09:24:47;;;;;;;5.57;1.40;;;;;;;7.61;54.94;99790.28;5101805;28;20585;-81
2022/01/17 09:27:18;;;;;;;4.07;1.80;;;;;;;7.66;55.00;99782.53;5175747;22;20247;-80
2022/01/17 09:30:31;;;;;;;3.10;1.53;;;;;;;7.63;54.66;99821.09;5054281;22;20269;-80
2022/01/17 09:33:13;;;;;;;2.30;1.63;;;;;;;7.61;54.48;99787.63;5114773;28;20223;-80
2022/01/17 09:35:55;;;;;;;2.30;1.80;;;;;;;7.70;54.15;99829.13;5119862;22;20172;-80
2022/01/17 09:38:22;;;;;;;2.00;1.40;;;;;;;7.62;54.30;99803.44;5131565;23;20217;-80
2022/01/17 09:41:06;;;;;;;5.70;2.37;;;;;;;7.60;53.83;99791.34;5040482;28;20265;-81
2022/01/17 09:44:25;;;;;;;3.93;1.90;;;;;;;7.61;54.46;99814.28;5178887;22;20233;-80
2022/01/17 09:47:16;;;;;;;3.23;2.03;;;;;;;7.64;54.16;99800.59;5029121;28;20243;-80
2022/01/17 09:49:54;;;;;;;5.40;2.23;;;;;;;7.64;53.72;99790.75;5057315;22;20577;-81
2022/01/17 09:55:24;;;;;;;3.00;1.83;;;;;;;7.64;53.48;99741.91;5072725;28;20221;-81
2022/01/17 09:58:02;;;;;;;11.90;2.20;;;;;;;7.79;53.08;99779.94;5072433;28;20243;-81
2022/01/17 10:00:40;;;;;;;2.40;1.73;;;;;;;7.70;53.56;99760.59;5085502;22;20277;-81
2022/01/17 10:03:16;;;;;;;4.03;2.30;;;;;;;7.74;53.34;99748.53;5103938;22;20289;-81
2022/01/17 10:05:46;;;;;;;6.97;2.00;;;;;;;7.96;52.27;99754.56;5078317;28;20241;-81
2022/01/17 10:08:20;;;;;;;12.53;2.57;;;;;;;7.92;52.71;99774.66;5111708;28;20218;-81
2022/01/17 10:11:15;;;;;;;6.07;2.00;;;;;;;8.04;52.13;99781.06;5113196;28;20254;-81
2022/01/17 10:14:04;;;;;;;2.97;1.87;;;;;;;8.06;51.86;99779.03;5112907;28;20167;-81
2022/01/17 10:16:32;;;;;;;4.50;2.20;;;;;;;8.13;51.85;99777.19;5094816;28;20304;-81
2022/01/17 10:19:14;;;;;;;4.30;2.10;;;;;;;8.20;51.58;99743.38;5111389;28;20241;-81
2022/01/17 10:21:53;;;;;;;3.73;1.80;;;;;;;8.30;51.16;99773.19;5114493;28;20223;-82
2022/01/17 10:28:34;;;;;;;2.93;1.80;;;;;;;8.43;51.02;99759.06;5092372;22;20248;-82
2022/01/17 10:37:43;;;;;;;5.30;2.13;;;;;;;8.25;50.99;99724.06;5066300;28;20291;-81
2022/01/17 10:40:40;;;;;;;2.33;1.93;;;;;;;8.39;50.79;99742.63;5111599;28;20227;-81
2022/01/17 10:43:36;;;;;;;2.63;1.93;;;;;;;8.25;51.91;99751.59;5101058;22;20234;-81
2022/01/17 10:46:31;;;;;;;2.40;2.20;;;;;;;8.31;51.82;99729.44;5168609;22;20796;-81
2022/01/17 10:49:49;;;;;;;4.67;1.77;;;;;;;8.21;51.78;99736.97;5092464;28;20220;-81
2022/01/17 10:52:49;;;;;;;2.40;2.00;;;;;;;8.15;51.57;99705.78;5091290;28;20235;-81
2022/01/17 10:55:45;;;;;;;3.37;2.00;;;;;;;8.09;51.70;99695.09;5103604;22;20228;-81
2022/01/17 10:58:53;;;;;;;3.57;2.00;;;;;;;8.06;51.78;99703.50;5113419;28;20191;-82
2022/01/17 11:01:23;;;;;;;2.63;2.23;;;;;;;7.96;52.59;99726.06;5111128;28;20192;-82
2022/01/17 11:03:57;;;;;;;2.10;1.90;;;;;;;8.21;52.60;99728.19;5115143;22;20239;-81
2022/01/17 11:06:32;;;;;;;2.43;2.20;;;;;;;8.28;52.71;99739.69;5135520;22;20253;-81
2022/01/17 11:09:07;;;;;;;2.30;2.10;;;;;;;8.33;52.14;99738.09;5094715;28;20220;-81
2022/01/17 11:11:40;;;;;;;3.03;2.00;;;;;;;8.45;51.85;99751.66;5092882;22;20235;-81
2022/01/17 11:14:30;;;;;;;2.53;2.30;;;;;;;8.39;52.26;99749.81;5090927;28;20189;-81
2022/01/17 11:16:58;;;;;;;2.17;1.97;;;;;;;8.25;51.73;99722.22;5103643;22;21257;-81
2022/01/17 11:20:08;;;;;;;3.43;1.97;;;;;;;8.26;52.17;99715.03;5114598;28;20232;-81
2022/01/17 11:22:41;;;;;;;2.10;1.87;;;;;;;8.25;51.78;99708.88;5115225;28;20242;-81
2022/01/17 11:25:41;;;;;;;2.10;1.90;;;;;;;8.11;52.18;99690.38;5097225;28;20250;-81
2022/01/17 11:28:10;;;;;;;2.10;1.90;;;;;;;8.22;51.73;99681.75;5123574;22;21912;-81
2022/01/17 11:30:44;;;;;;;2.17;1.80;;;;;;;8.19;52.13;99672.31;5097253;28;20224;-81
2022/01/17 11:33:11;;;;;;;1.87;1.57;;;;;;;8.12;52.33;99646.66;5096549;28;20303;-81
2022/01/17 11:35:44;;;;;;;2.00;1.70;;;;;;;8.17;51.91;99669.03;5121391;22;20292;-81
2022/01/17 11:38:22;;;;;;;2.53;2.10;;;;;;;8.19;51.96;99677.66;5078949;22;20232;-81
2022/01/17 11:40:53;;;;;;;2.00;1.70;;;;;;;8.07;52.37;99649.13;5111321;22;20212;-82
2022/01/17 11:43:34;;;;;;;2.70;2.03;;;;;;;8.04;52.27;99700.19;5074087;28;20194;-81
2022/01/17 11:46:05;;;;;;;3.40;2.30;;;;;;;8.01;52.54;99682.75;5080496;22;20209;-81
2022/01/17 11:49:08;;;;;;;2.30;2.10;;;;;;;7.82;52.79;99694.19;5101607;22;20180;-82
2022/01/17 11:51:46;;;;;;;3.27;2.37;;;;;;;7.76;53.06;99692.31;5087487;23;20228;-81
2022/01/17 11:54:42;;;;;;;3.80;2.23;;;;;;;7.73;53.04;99690.06;5078474;22;20233;-81
2022/01/17 11:57:21;;;;;;;4.50;2.07;;;;;;;7.74;53.65;99697.88;5001386;23;20220;-81
2022/01/17 12:00:04;;;;;;;4.93;2.60;;;;;;;7.75;53.63;99723.50;5093284;28;20235;-81
2022/01/17 12:03:22;;;;;;;3.67;2.07;;;;;;;7.70;53.23;99687.81;5057834;28;20277;-82
2022/01/17 12:05:55;;;;;;;2.60;2.20;;;;;;;7.65;53.93;99677.69;5096425;22;20250;-81
2022/01/17 12:08:27;;;;;;;2.93;2.10;;;;;;;7.65;53.88;99655.56;5094199;28;20233;-82
2022/01/17 12:11:28;;;;;;;5.60;2.50;;;;;;;7.56;54.63;99646.91;5077854;28;20224;-81
2022/01/17 12:14:03;;;;;;;3.50;2.33;;;;;;;7.52;54.18;99619.81;5094758;28;20192;-81
2022/01/17 12:16:36;;;;;;;4.73;2.40;;;;;;;7.44;54.81;99614.69;5130931;22;20254;-81
2022/01/17 12:19:14;;;;;;;3.70;2.47;;;;;;;7.39;54.70;99618.97;5079359;28;20212;-81
2022/01/17 12:21:53;;;;;;;4.37;1.83;;;;;;;7.30;55.02;99646.81;5102270;22;20245;-81
2022/01/17 12:24:21;;;;;;;4.87;2.60;;;;;;;7.32;54.88;99661.59;5112377;22;20648;-81
2022/01/17 12:26:56;;;;;;;3.00;2.20;;;;;;;7.31;55.61;99662.59;5071589;28;20248;-81
2022/01/17 12:29:37;;;;;;;6.83;2.60;;;;;;;7.36;54.74;99656.69;5092382;28;20232;-81
2022/01/17 12:32:35;;;;;;;3.33;2.40;;;;;;;7.24;53.93;99632.41;5102651;22;20370;-81
2022/01/17 12:35:51;;;;;;;5.30;2.50;;;;;;;7.32;54.69;99632.28;5120261;22;20254;-81
2022/01/17 12:38:36;;;;;;;2.77;2.27;;;;;;;7.24;54.47;99648.41;5085908;23;20219;-81
2022/01/17 12:41:36;;;;;;;3.73;2.20;;;;;;;7.34;54.04;99618.72;5119836;22;20216;-81
2022/01/17 12:44:22;;;;;;;4.13;2.90;;;;;;;7.38;53.77;99554.16;5091203;28;20224;-81
2022/01/17 12:47:12;;;;;;;3.60;2.80;;;;;;;7.42;54.10;99638.03;5120442;22;20252;-81
2022/01/17 12:50:06;;;;;;;3.83;2.80;;;;;;;7.36;55.04;99646.84;5047719;23;20233;-81
2022/01/17 12:52:36;;;;;;;3.43;2.80;;;;;;;7.28;54.00;99643.53;5032497;28;20201;-80
2022/01/17 12:55:07;;;;;;;3.37;2.97;;;;;;;7.29;55.06;99634.50;5044119;23;20214;-81